createdAt,value
2023-02-03T00:05:56.011Z,18.00
2023-02-03T00:36:53.987Z,7.70
2023-02-03T00:47:00.839Z,9.90
2023-02-03T00:52:04.756Z,7.50
2023-02-03T01:04:16.415Z,5.60
2023-02-03T01:09:19.938Z,7.90
2023-02-03T01:14:23.457Z,4.50
2023-02-03T01:19:27.386Z,10.10
2023-02-03T01:33:00.968Z,7.30
2023-02-03T01:38:04.602Z,5.90
2023-02-03T01:44:01.624Z,6.70
2023-02-03T01:49:14.613Z,3.10
2023-02-03T01:54:25.128Z,4.30
2023-02-03T01:59:31.913Z,5.80
2023-02-03T02:04:57.057Z,3.70
2023-02-03T02:20:15.448Z,3.10
2023-02-03T02:36:10.135Z,4.60
2023-02-03T02:41:41.675Z,5.70
2023-02-03T02:46:50.964Z,6.40
2023-02-03T03:00:41.256Z,6.00
2023-02-03T03:05:54.387Z,12.90
2023-02-03T03:11:44.179Z,11.10
2023-02-03T03:16:57.016Z,11.90
2023-02-03T03:22:07.699Z,7.40
2023-02-03T03:28:30.894Z,6.40
2023-02-03T03:33:34.362Z,6.10
2023-02-03T03:39:27.998Z,6.70
2023-02-03T03:44:48.559Z,6.80
2023-02-03T03:49:55.329Z,6.20
2023-02-03T03:56:18.967Z,6.30
2023-02-03T04:01:24.451Z,6.30
2023-02-03T04:13:36.452Z,7.00
2023-02-03T04:18:40.100Z,7.00
2023-02-03T04:23:43.628Z,7.40
2023-02-03T04:43:28.539Z,8.90
2023-02-03T04:49:11.867Z,10.40
2023-02-03T04:54:15.671Z,11.10
2023-02-03T04:59:19.267Z,17.20
2023-02-03T05:04:23.230Z,16.60
2023-02-03T05:09:29.590Z,15.50
2023-02-03T05:23:11.039Z,21.60
2023-02-03T05:28:40.470Z,28.30
2023-02-03T05:34:21.890Z,27.80
2023-02-03T05:39:25.497Z,25.30
2023-02-03T05:44:29.645Z,19.90
2023-02-03T05:49:33.160Z,24.10
2023-02-03T05:54:36.969Z,21.20
2023-02-03T05:59:41.853Z,16.60
2023-02-03T06:04:45.675Z,15.90
2023-02-03T06:18:18.831Z,15.80
2023-02-03T06:44:36.580Z,19.90
2023-02-03T06:49:40.056Z,24.60
2023-02-03T07:10:53.244Z,44.70
2023-02-03T07:15:57.406Z,67.30
2023-02-03T07:21:01.161Z,40.50
2023-02-03T07:26:07.761Z,135.90
2023-02-03T07:32:07.832Z,100.00
2023-02-03T07:37:11.514Z,241.70
2023-02-03T07:42:15.197Z,86.90
2023-02-03T07:54:39.508Z,67.60
2023-02-03T07:59:43.239Z,73.20
2023-02-03T08:13:50.291Z,78.20
2023-02-03T08:18:53.919Z,37.60
2023-02-03T08:23:57.768Z,32.20
2023-02-03T08:29:51.827Z,42.50
2023-02-03T08:49:12.966Z,15.70
2023-02-03T09:20:24.965Z,15.00
2023-02-03T09:26:20.660Z,16.50
2023-02-03T09:31:24.330Z,22.60
2023-02-03T09:36:28.625Z,29.10
2023-02-03T09:42:04.446Z,12.50
2023-02-03T09:47:19.255Z,18.20
2023-02-03T09:52:41.088Z,20.70
2023-02-03T10:13:09.203Z,31.50
2023-02-03T10:18:36.867Z,42.70
2023-02-03T10:23:55.353Z,38.80
2023-02-03T10:29:13.798Z,26.90
2023-02-03T10:34:20.890Z,23.20
2023-02-03T10:46:16.059Z,23.50
2023-02-03T10:52:05.268Z,16.60
2023-02-03T11:06:05.476Z,22.30
2023-02-03T11:11:32.139Z,25.60
2023-02-03T11:16:39.592Z,16.40
2023-02-03T11:21:49.836Z,17.80
2023-02-03T11:27:08.511Z,16.50
2023-02-03T11:32:19.803Z,15.40
2023-02-03T11:44:34.564Z,20.80
2023-02-03T11:50:36.425Z,18.30
2023-02-03T11:56:12.002Z,20.90
2023-02-03T12:01:49.804Z,25.10
2023-02-03T12:07:22.314Z,60.90
2023-02-03T12:13:06.480Z,27.30
2023-02-03T12:18:39.607Z,47.10
2023-02-03T12:24:24.705Z,31.80
2023-02-03T12:30:03.312Z,18.00
2023-02-03T12:35:23.336Z,62.50
2023-02-03T12:40:53.062Z,43.10
2023-02-03T12:46:22.745Z,135.90
2023-02-03T12:52:04.750Z,163.30
2023-02-03T12:57:37.262Z,114.90
2023-02-03T13:03:07.896Z,173.60
2023-02-03T13:08:39.709Z,48.60
2023-02-03T13:13:59.153Z,26.30
2023-02-03T13:19:17.892Z,246.60
2023-02-03T13:24:28.547Z,175.50
2023-02-03T13:29:54.589Z,147.10
2023-02-03T13:35:54.086Z,140.00
2023-02-03T13:41:29.297Z,56.80
2023-02-03T13:46:53.315Z,22.40
2023-02-03T13:51:57.803Z,19.90
2023-02-03T13:57:52.297Z,29.60
2023-02-03T14:02:57.223Z,33.50
2023-02-03T14:09:18.843Z,20.10
2023-02-03T14:29:02.359Z,51.00
2023-02-03T14:34:46.237Z,59.70
2023-02-03T14:40:49.767Z,40.90
2023-02-03T14:46:33.163Z,46.80
2023-02-03T14:52:15.203Z,35.10
2023-02-03T15:04:50.860Z,21.60
2023-02-03T15:10:55.103Z,20.90
2023-02-03T15:23:59.749Z,13.60
2023-02-03T15:29:41.513Z,22.00
2023-02-03T15:34:49.448Z,10.60
2023-02-03T15:47:05.547Z,32.40
2023-02-03T15:52:25.098Z,40.00
2023-02-03T15:57:35.076Z,30.80
2023-02-03T16:02:47.603Z,76.50
2023-02-03T16:07:52.339Z,18.80
2023-02-03T16:13:23.606Z,20.80
2023-02-03T16:18:27.425Z,22.50
2023-02-03T16:23:31.251Z,50.60
2023-02-03T16:29:56.549Z,24.40
2023-02-03T16:35:19.090Z,8.30
2023-02-03T16:40:43.535Z,10.90
2023-02-03T16:46:14.902Z,24.40
2023-02-03T16:51:44.375Z,21.60
2023-02-03T16:56:56.639Z,10.20
2023-02-03T17:02:05.497Z,23.70
2023-02-03T17:07:09.544Z,28.40
2023-02-03T17:12:13.477Z,56.90
2023-02-03T17:17:17.319Z,58.40
2023-02-03T17:22:21.448Z,59.60
2023-02-03T17:27:25.389Z,53.60
2023-02-03T17:32:29.309Z,48.50
2023-02-03T17:38:02.059Z,41.40
2023-02-03T17:54:09.191Z,34.60
2023-02-03T17:59:12.968Z,25.20
2023-02-03T18:04:16.750Z,28.40
2023-02-03T18:09:24.206Z,19.00
2023-02-03T18:14:47.352Z,18.10
2023-02-03T18:19:56.466Z,11.40
2023-02-03T18:25:58.052Z,18.20
2023-02-03T18:31:56.926Z,11.60
2023-02-03T18:38:23.939Z,8.90
2023-02-03T18:44:50.145Z,39.00
2023-02-03T18:58:24.086Z,12.30
2023-02-03T19:10:46.347Z,10.10
2023-02-03T19:15:53.269Z,13.10
2023-02-03T19:20:58.277Z,50.30
2023-02-03T19:26:06.068Z,135.30
2023-02-03T19:38:20.573Z,81.90
2023-02-03T19:43:28.043Z,44.90
2023-02-03T19:48:31.846Z,60.50
2023-02-03T19:53:36.801Z,71.60
2023-02-03T19:58:40.853Z,53.20
2023-02-03T20:03:48.905Z,58.00
2023-02-03T20:08:59.971Z,53.40
2023-02-03T20:14:05.955Z,54.70
2023-02-03T20:19:10.971Z,59.20
2023-02-03T20:24:15.091Z,23.10
2023-02-03T20:29:37.795Z,16.20
2023-02-03T20:34:41.809Z,27.20
2023-02-03T20:39:46.438Z,22.30
2023-02-03T20:45:46.493Z,22.20
2023-02-03T20:50:54.097Z,17.60
2023-02-03T20:56:02.423Z,14.50
2023-02-03T21:02:23.657Z,52.90
2023-02-03T21:07:32.833Z,31.70
2023-02-03T21:12:36.652Z,39.90
2023-02-03T21:17:40.421Z,20.60
2023-02-03T21:22:44.419Z,34.80
2023-02-03T21:27:48.621Z,36.20
2023-02-03T21:32:52.370Z,17.60
2023-02-03T21:38:04.762Z,11.90
2023-02-03T21:43:26.646Z,16.20
2023-02-03T21:48:41.076Z,15.10
2023-02-03T21:53:55.181Z,16.60
2023-02-03T21:59:00.239Z,12.70
2023-02-03T22:04:06.965Z,13.10
2023-02-03T22:09:23.229Z,22.70
2023-02-03T22:29:44.142Z,21.00
2023-02-03T22:36:11.985Z,14.50
2023-02-03T22:41:58.376Z,15.90
2023-02-03T22:47:55.201Z,11.90
2023-02-03T22:53:07.914Z,17.90
2023-02-03T22:58:14.728Z,31.00
2023-02-03T23:03:21.839Z,22.80
2023-02-03T23:16:40.254Z,24.60
2023-02-03T23:22:19.556Z,18.70
2023-02-03T23:28:39.609Z,13.70
2023-02-03T23:34:06.404Z,29.50
2023-02-03T23:39:10.196Z,15.20
2023-02-03T23:44:14.061Z,23.30
2023-02-03T23:50:57.474Z,25.40
2023-02-03T23:56:01.540Z,30.60
